Time;durP1;ratioP1;P1;durP2;ratioP2;P2;SDS_P1;SDS_P2;PMS_P1;PMS_P2;Temp;Humidity;BMP_temperature;BMP_pressure;BME280_temperature;BME280_humidity;BME280_pressure;Samples;Min_cycle;Max_cycle;Signal;HPM_P1;HPM_P2
2023/06/25 00:00:37;;;;;;;0.40;0.40;;;24.70;57.00;;;25.23;40.60;95448.06;5033425;28;20188;-42
2023/06/25 00:03:05;;;;;;;0.40;0.40;;;24.70;56.90;;;25.20;40.82;95451.25;5033795;28;20202;-45
2023/06/25 00:05:32;;;;;;;0.20;0.20;;;24.70;56.90;;;25.16;40.71;95455.56;5034222;28;20233;-42
2023/06/25 00:07:59;;;;;;;0.30;0.30;;;24.60;56.80;;;25.11;40.66;95452.91;5033632;28;20208;-41
2023/06/25 00:10:26;;;;;;;0.30;0.30;;;24.60;56.90;;;25.07;40.85;95455.31;5033562;28;20275;-42
2023/06/25 00:12:53;;;;;;;0.35;0.35;;;24.50;56.80;;;25.03;40.65;95454.25;5033412;28;20205;-42
2023/06/25 00:15:21;;;;;;;0.40;0.40;;;24.50;56.90;;;25.00;40.54;95462.84;5033378;28;20267;-45
2023/06/25 00:17:49;;;;;;;0.40;0.40;;;24.40;57.00;;;24.94;40.58;95451.31;5033347;28;20669;-45
2023/06/25 00:20:17;;;;;;;0.40;0.40;;;24.40;57.00;;;24.91;40.65;95446.50;5033132;28;20193;-42
2023/06/25 00:22:45;;;;;;;0.40;0.40;;;24.40;57.10;;;24.88;40.79;95449.72;5049154;28;20343;-44
2023/06/25 00:25:31;;;;;;;0.57;0.57;;;24.30;57.10;;;24.85;41.26;95442.22;5046476;28;20201;-43
2023/06/25 00:28:00;;;;;;;0.40;0.40;;;24.30;57.30;;;24.83;41.02;95444.34;5033145;28;20193;-47
2023/06/25 00:30:28;;;;;;;0.30;0.30;;;24.30;57.30;;;24.81;41.18;95443.81;5032029;28;20205;-43
2023/06/25 00:32:56;;;;;;;0.38;0.38;;;24.30;57.40;;;24.76;40.96;95441.91;5032207;28;20226;-45
2023/06/25 00:35:27;;;;;;;0.40;0.40;;;24.20;57.30;;;24.74;41.07;95436.03;5048548;28;20205;-43
2023/06/25 00:38:00;;;;;;;0.30;0.30;;;24.20;57.30;;;24.70;41.09;95434.16;5048442;28;20218;-47
2023/06/25 00:40:28;;;;;;;0.40;0.40;;;24.20;57.40;;;24.67;41.17;95438.19;5048476;28;20202;-42
2023/06/25 00:42:58;;;;;;;0.30;0.30;;;24.20;57.50;;;24.64;41.40;95430.63;5032959;28;20193;-44
2023/06/25 00:45:26;;;;;;;0.50;0.50;;;24.20;57.50;;;24.60;41.25;95435.72;5031641;28;20217;-44
2023/06/25 00:47:54;;;;;;;0.40;0.40;;;24.10;57.50;;;24.58;41.27;95434.38;5048521;28;20207;-48
2023/06/25 00:50:22;;;;;;;0.38;0.38;;;24.10;57.60;;;24.55;41.39;95434.94;5048687;28;20203;-46
2023/06/25 00:52:51;;;;;;;0.40;0.40;;;24.10;57.70;;;24.52;41.60;95420.16;5032667;28;20194;-43
2023/06/25 00:55:20;;;;;;;0.60;0.60;;;24.10;57.80;;;24.49;41.73;95423.41;5048214;28;20243;-43
2023/06/25 00:57:47;;;;;;;0.40;0.40;;;24.10;57.90;;;24.46;41.75;95429.28;5031774;28;20289;-43
2023/06/25 01:00:15;;;;;;;0.40;0.40;;;24.00;57.80;;;24.43;41.76;95425.25;5032928;28;20212;-44
2023/06/25 01:03:13;;;;;;;0.30;0.30;;;24.00;57.80;;;24.40;41.75;95427.66;5048203;28;20225;-45
2023/06/25 01:06:09;;;;;;;0.32;0.32;;;24.00;58.00;;;24.37;41.91;95430.91;5031738;28;20226;-45
2023/06/25 01:08:50;;;;;;;0.40;0.40;;;24.00;58.00;;;24.35;41.94;95425.00;5032889;28;20177;-45
2023/06/25 01:11:18;;;;;;;0.60;0.60;;;23.90;58.00;;;24.33;41.77;95421.75;5047910;28;20219;-47
2023/06/25 01:13:45;;;;;;;0.40;0.40;;;24.00;58.10;;;24.32;41.98;95420.19;5032506;28;20239;-41
2023/06/25 01:16:12;;;;;;;0.40;0.40;;;23.90;58.00;;;24.30;42.16;95423.09;5032493;28;20224;-41
2023/06/25 01:18:39;;;;;;;0.30;0.30;;;23.90;58.10;;;24.32;42.20;95426.34;5031451;28;20215;-41
2023/06/25 01:21:16;;;;;;;0.50;0.50;;;23.90;58.30;;;24.32;42.22;95426.34;5031757;28;20205;-41
2023/06/25 01:23:44;;;;;;;0.30;0.30;;;23.90;58.40;;;24.33;42.29;95419.91;5047856;28;20251;-42
2023/06/25 01:26:11;;;;;;;0.30;0.30;;;23.90;58.40;;;24.34;42.33;95418.00;5032270;28;20244;-42
2023/06/25 01:28:38;;;;;;;0.40;0.40;;;23.90;58.50;;;24.35;42.24;95414.25;5047826;28;20214;-41
2023/06/25 01:31:07;;;;;;;0.40;0.40;;;23.90;58.50;;;24.34;42.33;95413.47;5032326;28;20196;-42
2023/06/25 01:33:35;;;;;;;0.30;0.30;;;23.90;58.50;;;24.34;42.28;95412.66;5032467;28;20254;-44
2023/06/25 01:36:02;;;;;;;0.55;0.55;;;23.90;58.50;;;24.33;42.31;95411.84;5032541;28;20568;-42
2023/06/25 01:38:29;;;;;;;0.30;0.30;;;23.90;58.50;;;24.32;42.23;95406.78;5032136;28;20273;-42
2023/06/25 01:40:56;;;;;;;0.40;0.40;;;23.90;58.50;;;24.32;42.43;95404.09;5031986;28;20300;-42
2023/06/25 01:43:24;;;;;;;0.40;0.40;;;23.90;58.50;;;24.30;42.29;95398.97;5032378;28;20194;-41
2023/06/25 01:45:51;;;;;;;0.38;0.38;;;23.90;58.50;;;24.29;42.43;95397.38;5031095;28;20220;-42
2023/06/25 01:48:20;;;;;;;0.30;0.30;;;23.90;58.50;;;24.27;42.29;95396.84;5030941;28;20214;-42
2023/06/25 01:50:48;;;;;;;0.40;0.40;;;23.90;58.60;;;24.25;42.32;95388.25;5031991;28;20568;-41
2023/06/25 01:53:15;;;;;;;0.30;0.30;;;23.80;58.40;;;24.23;42.38;95385.84;5031040;28;20639;-42
2023/06/25 01:55:42;;;;;;;0.40;0.40;;;23.80;58.40;;;24.23;42.32;95387.72;5031943;28;20241;-42
2023/06/25 01:58:09;;;;;;;0.32;0.32;;;23.80;58.50;;;24.22;42.26;95392.28;5033323;28;20203;-41
2023/06/25 02:00:37;;;;;;;0.30;0.30;;;23.80;58.50;;;24.21;42.29;95385.31;5034790;28;20254;-43
2023/06/25 02:03:04;;;;;;;0.30;0.30;;;23.80;58.60;;;24.20;42.43;95382.91;5050817;28;20224;-45
2023/06/25 02:05:32;;;;;;;0.40;0.40;;;23.80;58.60;;;24.19;42.31;95381.28;5034380;28;20252;-42
2023/06/25 02:07:59;;;;;;;0.30;0.30;;;23.70;58.60;;;24.18;42.59;95385.84;5034338;28;20549;-41
2023/06/25 02:10:28;;;;;;;0.40;0.40;;;23.70;58.60;;;24.18;42.19;95383.19;5035328;28;20574;-41
2023/06/25 02:12:56;;;;;;;0.43;0.43;;;23.70;58.50;;;24.17;42.51;95383.41;5035516;28;20240;-41
2023/06/25 02:15:23;;;;;;;0.30;0.30;;;23.70;58.70;;;24.16;42.49;95376.44;5034301;28;20196;-40
2023/06/25 02:17:51;;;;;;;0.40;0.40;;;23.70;58.70;;;24.15;42.43;95383.69;5050816;28;20200;-42
2023/06/25 02:20:19;;;;;;;0.40;0.40;;;23.70;58.70;;;24.13;42.48;95375.09;5035179;28;20197;-40
2023/06/25 02:22:48;;;;;;;0.50;0.50;;;23.70;58.80;;;24.13;42.70;95377.78;5050627;28;20244;-41
2023/06/25 02:25:15;;;;;;;0.40;0.40;;;23.70;58.80;;;24.11;42.42;95370.03;5035345;28;20255;-41
2023/06/25 02:27:42;;;;;;;0.40;0.40;;;23.70;58.80;;;24.09;42.49;95374.84;5050840;28;20572;-44
2023/06/25 02:30:10;;;;;;;0.30;0.30;;;23.70;58.90;;;24.10;42.62;95378.34;5034076;28;20299;-44
2023/06/25 02:32:37;;;;;;;0.40;0.40;;;23.70;58.90;;;24.06;42.88;95370.03;5034889;28;20216;-41
2023/06/25 02:35:05;;;;;;;0.40;0.40;;;23.70;58.90;;;24.05;42.71;95371.09;5034883;28;20628;-41
2023/06/25 02:37:32;;;;;;;0.30;0.30;;;23.60;58.90;;;24.04;42.76;95376.72;5034773;28;20223;-40
2023/06/25 02:40:00;;;;;;;0.30;0.30;;;23.60;58.80;;;24.03;42.67;95367.06;5035415;28;20184;-45
2023/06/25 02:42:27;;;;;;;0.40;0.40;;;23.60;58.90;;;24.01;42.75;95370.03;5050488;28;20196;-43
2023/06/25 02:44:54;;;;;;;0.30;0.30;;;23.60;58.90;;;24.00;42.85;95370.25;5034717;28;20275;-40
2023/06/25 02:47:21;;;;;;;0.30;0.30;;;23.60;59.00;;;24.00;42.77;95370.25;5033690;28;20204;-40
2023/06/25 02:49:49;;;;;;;0.30;0.30;;;23.60;59.10;;;23.98;42.87;95367.84;5033764;28;20198;-41
2023/06/25 02:52:17;;;;;;;0.40;0.40;;;23.60;59.10;;;23.98;42.85;95370.53;5034909;28;20265;-41
2023/06/25 02:54:44;;;;;;;0.30;0.30;;;23.60;59.10;;;23.98;43.12;95365.19;5033735;28;20290;-42
2023/06/25 02:57:11;;;;;;;0.40;0.40;;;23.60;59.10;;;23.98;42.89;95367.84;5050135;28;20233;-44
2023/06/25 02:59:38;;;;;;;0.30;0.30;;;23.50;59.00;;;23.96;42.95;95364.63;5034565;28;20197;-43
2023/06/25 03:02:06;;;;;;;0.40;0.40;;;23.60;59.20;;;23.96;42.96;95367.31;5033609;28;20205;-47
2023/06/25 03:04:33;;;;;;;0.30;0.30;;;23.50;59.20;;;23.96;42.86;95364.63;5050141;28;20697;-41
2023/06/25 03:07:00;;;;;;;0.40;0.40;;;23.50;59.20;;;23.93;42.95;95363.28;5033412;28;20222;-40
2023/06/25 03:09:28;;;;;;;0.30;0.30;;;23.50;59.10;;;23.92;42.92;95363.53;5033226;28;20202;-40
2023/06/25 03:11:56;;;;;;;0.40;0.40;;;23.50;59.00;;;23.91;42.93;95365.41;5049980;28;20204;-40
2023/06/25 03:14:25;;;;;;;0.52;0.52;;;23.50;59.20;;;23.89;42.77;95364.88;5033380;28;20205;-42
2023/06/25 03:17:04;;;;;;;0.20;0.20;;;23.50;59.10;;;23.87;43.11;95367.00;5033378;28;20200;-40
2023/06/25 03:19:31;;;;;;;0.40;0.40;;;23.50;59.10;;;23.86;43.13;95365.38;5049545;28;20227;-41
2023/06/25 03:21:59;;;;;;;0.50;0.50;;;23.40;59.10;;;23.82;43.23;95364.31;5033814;28;20188;-39
2023/06/25 03:24:28;;;;;;;0.30;0.30;;;23.50;59.20;;;23.81;42.89;95374.25;5033121;28;20242;-39
2023/06/25 03:26:55;;;;;;;0.30;0.30;;;23.50;59.20;;;23.80;43.18;95367.28;5049586;28;20675;-39
2023/06/25 03:29:24;;;;;;;0.40;0.40;;;23.40;59.10;;;23.78;43.08;95372.06;5032969;28;20211;-39
2023/06/25 03:31:51;;;;;;;0.30;0.30;;;23.40;59.20;;;23.79;43.11;95375.53;5034060;28;20238;-39
2023/06/25 03:34:22;;;;;;;0.40;0.40;;;23.40;59.20;;;23.77;43.21;95373.16;5050009;28;20196;-39
2023/06/25 03:36:51;;;;;;;0.50;0.50;;;23.40;59.40;;;23.78;43.15;95376.66;5033041;28;20203;-39
2023/06/25 03:39:18;;;;;;;0.30;0.30;;;23.40;59.40;;;23.76;43.32;95376.09;5033462;28;20192;-39
2023/06/25 03:41:45;;;;;;;0.40;0.40;;;23.40;59.50;;;23.77;43.22;95380.38;5033015;28;20287;-39
2023/06/25 03:44:12;;;;;;;0.40;0.40;;;23.40;59.50;;;23.77;43.30;95380.38;5049554;28;20255;-39
2023/06/25 03:46:40;;;;;;;0.40;0.40;;;23.40;59.60;;;23.77;43.44;95372.34;5033102;28;20236;-41
2023/06/25 03:49:07;;;;;;;0.30;0.30;;;23.40;59.60;;;23.77;43.51;95372.34;5033130;28;20506;-40
2023/06/25 03:51:36;;;;;;;0.40;0.40;;;23.40;59.60;;;23.77;43.49;95373.16;5032686;28;20209;-39
2023/06/25 03:54:04;;;;;;;0.38;0.38;;;23.40;59.60;;;23.77;43.45;95375.03;5049812;28;20554;-39
2023/06/25 03:56:31;;;;;;;0.35;0.35;;;23.40;59.60;;;23.76;43.46;95373.41;5032765;28;20205;-39
2023/06/25 03:58:58;;;;;;;0.32;0.32;;;23.40;59.70;;;23.77;43.43;95375.03;5032689;28;20233;-41
2023/06/25 04:01:27;;;;;;;0.35;0.35;;;23.50;59.70;;;23.77;43.57;95380.38;5032625;28;20603;-41
2023/06/25 04:03:55;;;;;;;0.40;0.40;;;23.40;59.70;;;23.78;43.57;95379.31;5016362;28;20205;-39
2023/06/25 04:06:23;;;;;;;0.40;0.40;;;23.40;59.70;;;23.77;43.82;95370.47;5033499;28;20285;-39
2023/06/25 04:08:50;;;;;;;0.43;0.43;;;23.50;59.80;;;23.77;43.66;95372.34;5033752;28;20197;-39
2023/06/25 04:11:18;;;;;;;0.38;0.38;;;23.50;59.80;;;23.77;43.97;95375.03;5032343;28;20568;-40
2023/06/25 04:13:45;;;;;;;0.30;0.30;;;23.50;60.00;;;23.78;43.78;95372.06;5032528;28;20212;-39
2023/06/25 04:16:12;;;;;;;0.30;0.30;;;23.50;59.90;;;23.73;43.64;95366.72;5049494;28;20624;-38
2023/06/25 04:18:42;;;;;;;0.30;0.30;;;23.50;59.90;;;23.77;43.64;95373.16;5032385;28;20206;-39
2023/06/25 04:21:09;;;;;;;0.30;0.30;;;23.50;59.90;;;23.77;43.74;95367.78;5031682;28;20252;-40
2023/06/25 04:23:36;;;;;;;0.40;0.40;;;23.50;59.90;;;23.77;43.99;95370.47;5032158;28;20253;-38
2023/06/25 04:26:05;;;;;;;0.30;0.30;;;23.50;60.00;;;23.78;43.89;95372.06;5032221;28;20235;-44
2023/06/25 04:28:32;;;;;;;0.38;0.38;;;23.50;60.00;;;23.77;44.13;95370.47;5032531;28;20550;-39
2023/06/25 04:31:00;;;;;;;0.30;0.30;;;23.50;60.00;;;23.78;43.88;95377.44;5032071;28;20709;-40
2023/06/25 04:33:28;;;;;;;0.30;0.30;;;23.50;60.10;;;23.78;44.05;95374.75;5032198;28;20196;-40
2023/06/25 04:35:55;;;;;;;0.38;0.38;;;23.50;60.00;;;23.78;43.97;95376.66;5032154;28;20216;-42
2023/06/25 04:38:22;;;;;;;0.30;0.30;;;23.50;60.10;;;23.78;43.82;95376.66;5032099;28;20291;-42
2023/06/25 04:40:50;;;;;;;0.40;0.40;;;23.50;60.10;;;23.78;43.95;95364.03;5031966;28;20208;-40
2023/06/25 04:43:17;;;;;;;0.40;0.40;;;23.50;60.10;;;23.79;44.05;95372.88;5033146;28;20288;-42
2023/06/25 04:45:45;;;;;;;0.50;0.50;;;23.50;60.10;;;23.78;44.28;95376.66;5032088;28;20205;-43
2023/06/25 04:48:13;;;;;;;0.30;0.30;;;23.50;60.20;;;23.79;44.00;95372.88;5032087;28;20549;-42
2023/06/25 04:50:40;;;;;;;0.30;0.30;;;23.50;60.20;;;23.79;43.96;95365.66;5032313;28;20213;-41
2023/06/25 04:53:07;;;;;;;0.43;0.43;;;23.50;60.20;;;23.80;44.50;95371.81;5033204;28;20224;-44
2023/06/25 04:55:34;;;;;;;0.30;0.30;;;23.50;60.30;;;23.79;44.44;95373.69;5031893;28;20225;-39
2023/06/25 04:58:02;;;;;;;0.30;0.30;;;23.50;60.20;;;23.77;44.39;95370.47;5032809;28;20190;-43
2023/06/25 05:00:30;;;;;;;0.40;0.40;;;23.60;60.40;;;23.81;44.11;95376.91;5032562;28;20190;-43
2023/06/25 05:02:57;;;;;;;0.30;0.30;;;23.50;60.30;;;23.82;44.00;95377.72;5032739;28;20225;-41
2023/06/25 05:05:24;;;;;;;0.30;0.30;;;23.50;60.30;;;23.81;44.35;95379.59;5032655;28;20263;-41
2023/06/25 05:07:52;;;;;;;0.38;0.38;;;23.50;60.40;;;23.81;44.30;95379.59;5032502;28;20244;-41
2023/06/25 05:10:21;;;;;;;0.40;0.40;;;23.60;60.50;;;23.82;44.50;95378.50;5032443;28;20190;-39
2023/06/25 05:12:48;;;;;;;0.40;0.40;;;23.60;60.50;;;23.83;44.39;95384.69;5031719;28;20326;-39
2023/06/25 05:15:16;;;;;;;0.30;0.30;;;23.60;60.50;;;23.83;44.59;95387.38;5032568;28;20197;-39
2023/06/25 05:17:43;;;;;;;0.30;0.30;;;23.60;60.50;;;23.84;44.66;95383.63;5032657;28;20200;-37
2023/06/25 05:20:11;;;;;;;0.30;0.30;;;23.60;60.60;;;23.83;44.71;95384.69;5032533;28;20225;-39
2023/06/25 05:22:38;;;;;;;0.38;0.38;;;23.60;60.50;;;23.84;44.55;95386.28;5032296;28;20225;-41
2023/06/25 05:25:06;;;;;;;0.40;0.40;;;23.60;60.60;;;23.84;44.70;95388.97;5033025;28;20201;-39
2023/06/25 05:27:33;;;;;;;0.35;0.35;;;23.60;60.70;;;23.86;44.77;95386.81;5032295;28;20300;-39
2023/06/25 05:30:01;;;;;;;0.30;0.30;;;23.60;60.70;;;23.86;45.04;95384.13;5032436;28;20189;-38
2023/06/25 05:32:28;;;;;;;0.35;0.35;;;23.60;60.80;;;23.88;45.03;95386.56;5031291;28;20195;-41
2023/06/25 05:34:55;;;;;;;0.40;0.40;;;23.60;60.80;;;23.89;45.08;95397.03;5032514;28;20189;-40
2023/06/25 05:37:22;;;;;;;0.30;0.30;;;23.60;60.90;;;23.89;45.14;95390.84;5031492;28;20218;-41
2023/06/25 05:39:49;;;;;;;0.30;0.30;;;23.60;60.90;;;23.89;45.26;95391.66;5032938;28;20284;-40
2023/06/25 05:42:16;;;;;;;0.30;0.30;;;23.60;61.00;;;23.90;45.09;95398.63;5031203;28;20206;-41
2023/06/25 05:44:45;;;;;;;0.30;0.30;;;23.70;61.00;;;23.91;44.91;95389.53;5032567;28;20205;-40
2023/06/25 05:47:12;;;;;;;0.30;0.30;;;23.70;61.00;;;23.93;45.44;95395.44;5032363;28;20278;-40
2023/06/25 05:49:39;;;;;;;0.30;0.30;;;23.70;61.00;;;23.95;45.36;95395.19;5032256;28;20213;-41
2023/06/25 05:52:07;;;;;;;0.30;0.30;;;23.70;61.00;;;23.95;45.27;95396.00;5031825;28;20197;-38
2023/06/25 05:54:34;;;;;;;0.38;0.38;;;23.70;61.00;;;23.97;45.30;95393.03;5047750;28;20191;-51
2023/06/25 05:57:01;;;;;;;0.40;0.40;;;23.70;61.00;;;23.98;45.27;95392.75;5032406;28;20313;-41
2023/06/25 05:59:28;;;;;;;0.30;0.30;;;23.70;61.10;;;24.00;45.21;95397.06;5032427;28;20286;-42
2023/06/25 06:01:55;;;;;;;0.30;0.30;;;23.70;61.00;;;24.02;45.29;95398.41;5031912;28;20198;-45
2023/06/25 06:04:23;;;;;;;0.40;0.40;;;23.70;61.00;;;24.02;45.32;95389.56;5031316;28;20259;-38
2023/06/25 06:06:50;;;;;;;0.30;0.30;;;23.80;61.10;;;24.04;45.25;95390.91;5031896;28;20211;-42
2023/06/25 06:09:17;;;;;;;0.30;0.30;;;23.80;61.00;;;24.05;45.04;95384.47;5032227;28;20640;-47
2023/06/25 06:11:44;;;;;;;0.30;0.30;;;23.80;61.10;;;24.07;45.16;95384.22;5031679;28;20517;-39
2023/06/25 06:14:12;;;;;;;0.30;0.30;;;23.80;61.10;;;24.08;45.40;95385.81;5031885;28;20217;-39
2023/06/25 06:16:39;;;;;;;0.52;0.52;;;23.80;61.10;;;24.09;45.29;95387.44;5031998;28;20224;-39
2023/06/25 06:19:06;;;;;;;0.30;0.30;;;23.80;61.10;;;24.10;45.24;95384.47;5031390;28;20227;-44
2023/06/25 06:21:33;;;;;;;0.30;0.30;;;23.80;61.00;;;24.12;45.32;95394.94;5047510;28;20525;-40
2023/06/25 06:24:00;;;;;;;0.35;0.35;;;23.80;61.10;;;24.12;45.45;95389.56;5047588;28;20247;-44
2023/06/25 06:26:28;;;;;;;0.30;0.30;;;23.90;61.20;;;24.14;45.25;95379.41;5031666;28;20261;-40
2023/06/25 06:28:55;;;;;;;0.40;0.40;;;23.90;61.20;;;24.14;45.33;95382.06;5031658;28;20217;-40
2023/06/25 06:31:22;;;;;;;0.50;0.50;;;23.90;61.20;;;24.17;45.24;95384.25;5031498;28;20583;-42
2023/06/25 06:33:50;;;;;;;0.50;0.50;;;23.90;61.10;;;24.19;45.42;95378.59;5047158;28;20570;-38
2023/06/25 06:36:17;;;;;;;0.40;0.40;;;23.90;61.10;;;24.19;45.17;95376.72;5031820;28;20198;-38
2023/06/25 06:38:45;;;;;;;0.30;0.30;;;23.90;61.10;;;24.20;45.25;95375.66;5031999;28;20195;-43
2023/06/25 06:41:12;;;;;;;0.20;0.20;;;23.90;61.10;;;24.22;45.17;95380.75;5031791;28;20286;-40
2023/06/25 06:43:40;;;;;;;0.40;0.40;;;24.00;61.10;;;24.23;45.09;95377.81;5047911;28;20267;-45
2023/06/25 06:46:07;;;;;;;0.40;0.40;;;24.00;61.10;;;24.24;45.13;95376.75;5034969;28;20230;-41
2023/06/25 06:48:35;;;;;;;0.30;0.30;;;24.00;61.10;;;24.25;45.17;95375.66;5034997;28;20199;-40
2023/06/25 06:51:02;;;;;;;0.30;0.30;;;24.00;61.00;;;24.27;45.29;95375.41;5034793;28;20193;-42
2023/06/25 06:53:29;;;;;;;0.40;0.40;;;24.00;61.10;;;24.29;45.08;95379.41;5034657;28;20222;-42
2023/06/25 06:55:56;;;;;;;0.45;0.45;;;24.00;61.10;;;24.32;45.29;95380.75;5034851;28;20622;-42
2023/06/25 06:58:23;;;;;;;0.50;0.50;;;24.00;61.10;;;24.33;45.03;95377.00;5050610;28;20225;-43
2023/06/25 07:00:50;;;;;;;0.40;0.40;;;24.00;61.00;;;24.34;45.26;95372.44;5035093;28;20201;-40
2023/06/25 07:03:17;;;;;;;0.30;0.30;;;24.00;61.10;;;24.35;45.18;95374.06;5050031;28;20223;-40
2023/06/25 07:05:44;;;;;;;0.38;0.38;;;24.00;61.00;;;24.37;45.14;95374.59;5034677;28;20215;-46
2023/06/25 07:08:12;;;;;;;0.30;0.30;;;24.10;61.10;;;24.40;45.34;95379.41;5034651;28;20217;-42
2023/06/25 07:10:40;;;;;;;0.40;0.40;;;24.10;61.10;;;24.41;45.31;95378.34;5034532;28;20548;-41
2023/06/25 07:13:07;;;;;;;0.30;0.30;;;24.10;61.00;;;24.42;45.16;95378.06;5034527;28;20195;-41
2023/06/25 07:15:35;;;;;;;0.32;0.32;;;24.10;61.00;;;24.44;45.21;95377.81;5049769;28;20732;-40
2023/06/25 07:18:03;;;;;;;0.40;0.40;;;24.10;61.00;;;24.45;45.04;95377.53;5034305;28;20206;-41
2023/06/25 07:20:30;;;;;;;0.50;0.50;;;24.20;61.10;;;24.49;44.94;95377.81;5034748;28;20265;-41
2023/06/25 07:22:57;;;;;;;0.30;0.30;;;24.20;61.10;;;24.50;44.90;95378.59;5034114;28;20698;-40
2023/06/25 07:25:24;;;;;;;0.40;0.40;;;24.20;61.10;;;24.51;45.09;95367.63;5034894;28;20222;-39
2023/06/25 07:27:51;;;;;;;0.30;0.30;;;24.20;61.00;;;24.52;44.98;95371.91;5034073;28;20215;-39
2023/06/25 07:30:18;;;;;;;0.50;0.50;;;24.20;61.10;;;24.55;45.10;95370.56;5033983;28;20201;-44
2023/06/25 07:32:46;;;;;;;0.30;0.30;;;24.20;61.00;;;24.56;45.16;95367.63;5050008;28;20230;-44
2023/06/25 07:35:13;;;;;;;0.32;0.32;;;24.30;61.10;;;24.58;45.15;95370.84;5033443;28;20192;-46
2023/06/25 07:37:40;;;;;;;0.30;0.30;;;24.30;61.10;;;24.60;44.95;95368.69;5034101;28;20280;-43
2023/06/25 07:40:08;;;;;;;0.30;0.30;;;24.30;61.10;;;24.62;45.18;95361.19;5033988;28;20202;-44
2023/06/25 07:42:35;;;;;;;0.30;0.30;;;24.30;61.10;;;24.65;44.94;95372.44;5034074;28;20334;-45
2023/06/25 07:45:02;;;;;;;0.40;0.40;;;24.40;61.20;;;24.66;45.25;95361.47;5034171;28;20189;-43
2023/06/25 07:47:29;;;;;;;0.30;0.30;;;24.40;61.20;;;24.70;45.46;95364.41;5027222;28;20218;-45
2023/06/25 07:49:57;;;;;;;0.40;0.40;;;24.40;61.20;;;24.70;45.24;95348.31;5041384;28;20214;-46
2023/06/25 07:52:24;;;;;;;0.30;0.30;;;24.40;61.10;;;24.72;45.21;95355.03;5013097;28;20200;-46
2023/06/25 07:54:51;;;;;;;0.38;0.38;;;24.40;62.00;;;24.75;44.96;95362.50;5012869;28;20200;-45
2023/06/25 07:57:18;;;;;;;0.40;0.40;;;24.40;61.10;;;24.76;45.13;95355.28;5029167;28;20272;-43
2023/06/25 07:59:46;;;;;;;0.40;0.40;;;24.50;61.10;;;24.80;45.03;95350.97;5014191;28;20204;-46
2023/06/25 08:02:20;;;;;;;0.30;0.30;;;24.50;62.00;;;24.81;45.17;95355.28;5013953;28;20203;-45
2023/06/25 08:04:49;;;;;;;0.40;0.40;;;24.50;61.10;;;24.83;45.03;95353.13;5013898;28;20197;-46
2023/06/25 08:07:17;;;;;;;0.30;0.30;;;24.50;61.00;;;24.86;44.90;95355.25;5013577;28;20212;-42
2023/06/25 08:09:44;;;;;;;0.50;0.50;;;24.60;61.00;;;24.87;45.01;95354.19;5014013;28;20192;-42
2023/06/25 08:12:14;;;;;;;0.30;0.30;;;24.60;60.90;;;24.89;45.27;95354.72;5017167;28;20657;-43
2023/06/25 08:14:43;;;;;;;0.35;0.35;;;24.60;61.00;;;24.91;44.89;95347.22;5015408;28;20199;-43
2023/06/25 08:17:10;;;;;;;0.30;0.30;;;24.60;61.00;;;24.93;44.41;95347.72;5018982;28;20303;-43
2023/06/25 08:19:37;;;;;;;0.50;0.50;;;24.60;61.00;;;24.96;44.67;95343.69;5022321;28;20216;-41
2023/06/25 08:22:04;;;;;;;0.30;0.30;;;24.60;61.00;;;24.99;44.97;95347.72;5036259;28;20526;-42
2023/06/25 08:24:31;;;;;;;0.40;0.40;;;24.70;61.00;;;25.01;45.03;95332.97;5030479;28;20752;-39
2023/06/25 08:26:58;;;;;;;0.50;0.50;;;24.70;61.00;;;25.03;44.88;95338.06;5013736;28;20220;-38
2023/06/25 08:29:26;;;;;;;0.30;0.30;;;24.80;61.00;;;25.07;45.07;95339.09;5026497;28;20211;-39
2023/06/25 08:31:53;;;;;;;0.40;0.40;;;24.80;61.00;;;25.10;45.00;95335.88;5033187;28;20635;-39
2023/06/25 08:34:20;;;;;;;0.30;0.30;;;24.80;60.90;;;25.12;44.59;95327.53;5033542;28;20232;-38
2023/06/25 08:36:47;;;;;;;0.30;0.30;;;24.80;60.90;;;25.16;44.52;95334.78;5032959;28;20206;-38
2023/06/25 08:39:15;;;;;;;0.50;0.50;;;24.80;60.80;;;25.17;44.86;95332.88;5032479;28;20200;-40
2023/06/25 08:41:42;;;;;;;0.40;0.40;;;24.90;60.80;;;25.20;44.75;95335.03;5033257;28;20310;-39
2023/06/25 08:44:10;;;;;;;0.30;0.30;;;24.90;60.80;;;25.21;44.50;95325.91;5032002;28;20223;-38
2023/06/25 08:46:38;;;;;;;0.30;0.30;;;24.90;60.70;;;25.24;44.49;95326.16;5032920;28;20200;-42
2023/06/25 08:49:06;;;;;;;0.45;0.45;;;24.90;60.60;;;25.27;44.41;95335.56;5032883;28;20204;-42
2023/06/25 08:51:35;;;;;;;0.40;0.40;;;24.90;60.60;;;25.30;44.53;95334.97;5033125;28;20193;-43
2023/06/25 08:54:03;;;;;;;0.40;0.40;;;25.00;60.60;;;25.31;44.38;95331.22;5032777;28;20636;-42
2023/06/25 08:56:30;;;;;;;0.30;0.30;;;25.00;60.60;;;25.35;44.42;95334.16;5032893;28;20647;-42
2023/06/25 08:58:57;;;;;;;0.40;0.40;;;25.00;60.60;;;25.36;44.33;95327.72;5032149;28;20195;-43
2023/06/25 09:01:24;;;;;;;0.30;0.30;;;25.00;60.60;;;25.37;44.16;95337.38;5031812;28;20228;-41
2023/06/25 09:03:53;;;;;;;0.60;0.60;;;25.10;60.60;;;25.40;44.49;95336.84;5027301;28;20712;-41
2023/06/25 09:06:21;;;;;;;0.40;0.40;;;25.10;60.70;;;25.42;44.44;95337.38;5032612;28;20329;-42
2023/06/25 09:08:49;;;;;;;0.40;0.40;;;25.10;60.70;;;25.43;44.60;95328.25;5033275;28;20297;-42
2023/06/25 09:11:16;;;;;;;0.30;0.30;;;25.10;60.80;;;25.44;44.57;95337.09;5032733;28;20204;-42
2023/06/25 09:13:44;;;;;;;0.40;0.40;;;25.10;60.80;;;25.46;44.74;95329.59;5015962;28;20351;-41
2023/06/25 09:16:11;;;;;;;0.30;0.30;;;25.10;60.80;;;25.47;44.72;95336.56;5032637;28;20291;-41
2023/06/25 09:18:38;;;;;;;0.20;0.20;;;25.10;60.90;;;25.49;44.66;95337.09;5031402;28;20619;-40
2023/06/25 09:21:09;;;;;;;0.30;0.30;;;25.10;60.90;;;25.51;44.82;95330.38;5031702;28;20651;-41
2023/06/25 09:23:37;;;;;;;0.30;0.30;;;25.10;60.90;;;25.52;44.65;95329.28;5032406;28;20240;-39
2023/06/25 09:26:09;;;;;;;0.30;0.30;;;25.20;60.90;;;25.54;44.55;95324.44;5032433;28;20238;-42
2023/06/25 09:28:59;;;;;;;0.30;0.30;;;25.20;60.90;;;25.55;44.68;95317.97;5032333;28;20257;-44
2023/06/25 09:31:26;;;;;;;0.30;0.30;;;25.20;60.90;;;25.56;44.59;95316.91;5032476;28;20206;-42
2023/06/25 09:33:54;;;;;;;0.35;0.35;;;25.20;60.90;;;25.61;44.57;95315.25;5031887;28;20201;-43
2023/06/25 09:36:21;;;;;;;0.30;0.30;;;25.20;60.90;;;25.62;44.66;95324.94;5032948;28;20283;-40
2023/06/25 09:38:53;;;;;;;0.30;0.30;;;25.20;60.90;;;25.66;44.50;95320.59;5032622;28;20219;-41
2023/06/25 09:41:22;;;;;;;0.30;0.30;;;25.30;60.90;;;25.67;44.45;95319.53;5031695;28;20201;-38
2023/06/25 09:43:50;;;;;;;0.30;0.30;;;25.30;60.80;;;25.70;44.46;95309.03;5032366;28;20264;-44
2023/06/25 09:46:19;;;;;;;0.30;0.30;;;25.30;60.70;;;25.72;44.37;95304.19;5032603;28;20269;-46
2023/06/25 09:48:51;;;;;;;0.38;0.38;;;25.30;60.60;;;25.76;44.11;95309.00;5015118;28;20216;-42
2023/06/25 09:51:20;;;;;;;0.30;0.30;;;25.40;60.60;;;25.78;44.15;95298.78;5032505;28;20216;-41
2023/06/25 09:53:49;;;;;;;0.30;0.30;;;25.40;60.60;;;25.80;44.42;95300.09;5031260;28;20648;-42
2023/06/25 09:56:18;;;;;;;0.30;0.30;;;25.40;60.50;;;25.83;44.28;95298.72;5048158;28;20185;-40
2023/06/25 09:58:45;;;;;;;0.30;0.30;;;25.50;60.60;;;25.86;44.03;95298.19;5031084;28;20398;-40
2023/06/25 10:01:13;;;;;;;0.30;0.30;;;25.50;60.50;;;25.88;44.06;95294.13;5031995;28;20201;-38
2023/06/25 10:03:42;;;;;;;0.30;0.30;;;25.50;60.50;;;25.90;44.01;95288.47;5031871;28;20204;-41
2023/06/25 10:06:10;;;;;;;0.30;0.30;;;25.50;60.30;;;25.92;43.83;95288.22;5032153;28;20293;-43
2023/06/25 10:08:37;;;;;;;0.30;0.30;;;25.50;60.30;;;25.93;43.67;95287.09;5030875;28;20250;-43
2023/06/25 10:11:06;;;;;;;0.30;0.30;;;25.60;60.30;;;25.95;44.16;95283.06;5031811;28;20210;-41
2023/06/25 10:13:39;;;;;;;0.20;0.20;;;25.60;60.20;;;25.96;44.07;95281.19;5031441;28;20201;-41
2023/06/25 10:16:06;;;;;;;0.20;0.20;;;25.60;60.30;;;25.98;43.77;95284.41;5031192;28;20183;-43
2023/06/25 10:18:42;;;;;;;0.30;0.30;;;25.60;60.20;;;25.99;43.41;95284.09;5032148;28;20665;-42
2023/06/25 10:21:19;;;;;;;0.30;0.30;;;25.60;60.00;;;25.99;43.87;95276.03;5035519;28;20189;-42
2023/06/25 10:24:01;;;;;;;0.30;0.30;;;25.60;60.00;;;26.01;43.25;95283.81;5035383;28;20232;-42